Time;durP1;ratioP1;P1;durP2;ratioP2;P2;SDS_P1;SDS_P2;PMS_P1;PMS_P2;Temp;Humidity;BMP_temperature;BMP_pressure;BME280_temperature;BME280_humidity;BME280_pressure;Samples;Min_cycle;Max_cycle;Signal;HPM_P1;HPM_P2
2021/08/03 00:00:05;;;;;;;4.30;3.90;;;16.50;99.90;;;;;;4992856;28;20242;-61
2021/08/03 00:02:33;;;;;;;4.15;3.85;;;16.60;99.90;;;;;;4993236;28;20239;-61
2021/08/03 00:05:01;;;;;;;4.80;4.40;;;16.70;99.90;;;;;;4992536;28;20236;-60
2021/08/03 00:07:34;;;;;;;4.50;4.10;;;16.80;99.90;;;;;;5005087;28;20264;-61
2021/08/03 00:10:06;;;;;;;4.97;4.57;;;16.80;99.90;;;;;;4996749;28;20261;-61
2021/08/03 00:12:33;;;;;;;4.43;4.10;;;16.60;99.90;;;;;;4997465;28;20219;-62
2021/08/03 00:15:01;;;;;;;5.30;4.80;;;16.40;99.90;;;;;;4996868;28;20200;-62
2021/08/03 00:17:29;;;;;;;3.85;3.63;;;16.50;99.90;;;;;;4996679;28;20227;-61
2021/08/03 00:19:58;;;;;;;5.10;4.70;;;16.50;99.90;;;;;;4997405;28;20202;-62
2021/08/03 00:22:25;;;;;;;4.03;3.73;;;16.50;99.90;;;;;;4996184;28;20222;-63
2021/08/03 00:24:52;;;;;;;4.80;4.50;;;16.70;99.90;;;;;;4997161;28;20436;-61
2021/08/03 00:27:20;;;;;;;4.00;3.70;;;16.80;99.90;;;;;;4997615;28;20261;-61
2021/08/03 00:29:47;;;;;;;4.85;4.45;;;16.70;99.90;;;;;;4987574;28;20262;-62
2021/08/03 00:32:14;;;;;;;3.95;3.75;;;16.90;99.90;;;;;;5000014;28;20212;-61
2021/08/03 00:34:41;;;;;;;4.87;4.47;;;17.00;99.90;;;;;;5000119;28;20509;-61
2021/08/03 00:37:09;;;;;;;4.68;4.28;;;16.80;99.90;;;;;;5000967;28;20508;-61
2021/08/03 00:39:37;;;;;;;5.00;4.60;;;16.90;99.90;;;;;;4998332;28;20246;-61
2021/08/03 00:42:06;;;;;;;3.85;3.55;;;16.90;99.90;;;;;;5001070;28;20475;-62
2021/08/03 00:44:47;;;;;;;8.45;4.75;;;16.90;99.90;;;;;;4999570;28;20350;-62
2021/08/03 00:47:16;;;;;;;5.10;4.43;;;16.90;99.90;;;;;;4993354;28;20365;-62
2021/08/03 00:49:43;;;;;;;5.38;4.90;;;17.00;99.90;;;;;;4995690;28;20376;-62
2021/08/03 00:52:12;;;;;;;3.67;3.37;;;17.10;99.90;;;;;;5000308;28;20262;-61
2021/08/03 00:54:39;;;;;;;4.17;3.80;;;16.90;99.90;;;;;;4999151;28;20447;-61
2021/08/03 00:57:08;;;;;;;4.43;4.03;;;16.90;99.90;;;;;;4999435;28;20441;-62
2021/08/03 00:59:36;;;;;;;5.17;3.83;;;17.00;99.90;;;;;;4999970;28;20441;-62
2021/08/03 01:02:05;;;;;;;4.47;3.90;;;16.90;99.90;;;;;;4999380;28;20505;-61
2021/08/03 01:04:33;;;;;;;4.70;4.20;;;16.90;99.90;;;;;;4990401;28;20521;-61
2021/08/03 01:07:25;;;;;;;5.50;5.00;;;16.70;99.90;;;;;;4989966;28;20450;-61
2021/08/03 01:10:14;;;;;;;5.17;4.40;;;16.80;99.90;;;;;;5014280;28;20429;-61
2021/08/03 01:13:26;;;;;;;5.00;4.60;;;17.00;99.90;;;;;;4998462;28;20434;-61
2021/08/03 01:16:16;;;;;;;5.00;4.60;;;16.90;99.90;;;;;;4991811;28;20486;-62
2021/08/03 01:19:12;;;;;;;4.77;4.37;;;16.80;99.90;;;;;;4982151;28;20444;-62
2021/08/03 01:22:02;;;;;;;5.35;4.30;;;16.70;99.90;;;;;;4985518;28;20768;-62
2021/08/03 01:24:58;;;;;;;4.23;3.93;;;16.70;99.90;;;;;;4999028;28;20199;-61
2021/08/03 01:28:02;;;;;;;3.87;3.60;;;16.60;99.90;;;;;;4985788;28;20545;-61
2021/08/03 01:30:32;;;;;;;4.10;3.75;;;16.80;99.90;;;;;;4999335;28;20862;-61
2021/08/03 01:32:59;;;;;;;8.10;4.80;;;16.90;99.90;;;;;;4998869;28;20204;-62
2021/08/03 01:35:27;;;;;;;5.90;5.27;;;16.70;99.90;;;;;;4997637;28;21998;-61
2021/08/03 01:37:58;;;;;;;5.05;4.55;;;16.70;99.90;;;;;;4998209;28;20469;-61
2021/08/03 01:40:27;;;;;;;5.00;4.50;;;16.70;99.90;;;;;;4998793;28;20250;-61
2021/08/03 01:42:56;;;;;;;5.25;4.75;;;16.80;99.90;;;;;;4998799;28;20247;-61
2021/08/03 01:45:23;;;;;;;9.00;4.73;;;16.70;99.90;;;;;;4998366;28;20446;-61
2021/08/03 01:47:50;;;;;;;5.43;4.93;;;16.70;99.90;;;;;;4983149;28;20458;-61
2021/08/03 01:50:17;;;;;;;6.80;4.72;;;16.60;99.90;;;;;;4981600;28;20478;-61
2021/08/03 01:52:45;;;;;;;5.88;5.38;;;16.70;99.90;;;;;;4982470;28;20213;-62
2021/08/03 01:55:13;;;;;;;8.93;5.73;;;16.70;99.90;;;;;;4978699;28;20199;-62
2021/08/03 01:57:42;;;;;;;5.50;4.93;;;16.70;99.90;;;;;;4992589;28;20417;-61
2021/08/03 02:00:10;;;;;;;5.40;4.83;;;16.80;99.90;;;;;;4987902;28;20441;-61
2021/08/03 02:02:37;;;;;;;5.13;4.70;;;16.80;99.90;;;;;;4997983;28;20449;-61
2021/08/03 02:05:06;;;;;;;5.10;4.70;;;16.70;99.90;;;;;;4991121;28;20483;-61
2021/08/03 02:07:34;;;;;;;5.63;4.73;;;16.70;99.90;;;;;;4992474;28;20781;-61
2021/08/03 02:10:03;;;;;;;6.47;5.00;;;16.70;99.90;;;;;;4985990;28;20412;-62
2021/08/03 02:12:32;;;;;;;6.97;6.07;;;16.60;99.90;;;;;;4998743;28;20258;-61
2021/08/03 02:15:00;;;;;;;10.10;5.95;;;16.60;99.90;;;;;;4998111;28;20493;-62
2021/08/03 02:17:27;;;;;;;5.78;5.13;;;16.60;99.90;;;;;;5008796;28;20228;-61
2021/08/03 02:19:54;;;;;;;5.00;4.47;;;16.60;99.90;;;;;;4986356;28;20483;-61
2021/08/03 02:22:22;;;;;;;5.30;4.65;;;16.60;99.90;;;;;;4998124;28;20223;-61
2021/08/03 02:24:49;;;;;;;5.87;5.37;;;16.50;99.90;;;;;;4985017;28;20209;-61
2021/08/03 02:27:16;;;;;;;7.17;5.57;;;16.40;99.90;;;;;;4997949;28;20877;-61
2021/08/03 02:29:45;;;;;;;7.00;6.15;;;16.40;99.90;;;;;;4997845;28;20489;-61
2021/08/03 02:32:22;;;;;;;8.88;5.25;;;16.30;99.90;;;;;;4985057;28;20286;-61
2021/08/03 02:35:11;;;;;;;5.65;4.97;;;16.30;99.90;;;;;;4997487;28;20207;-62
2021/08/03 02:37:42;;;;;;;5.03;4.57;;;16.30;99.90;;;;;;4987623;28;20537;-62
2021/08/03 02:40:10;;;;;;;6.23;5.63;;;16.30;99.90;;;;;;4995912;28;20208;-62
2021/08/03 02:42:39;;;;;;;6.75;5.40;;;16.30;99.90;;;;;;4996774;28;20598;-62
2021/08/03 02:45:07;;;;;;;7.30;6.45;;;16.20;99.90;;;;;;4998100;28;20599;-61
2021/08/03 02:47:44;;;;;;;8.93;5.45;;;16.20;99.90;;;;;;4997835;28;20198;-61
2021/08/03 02:50:12;;;;;;;10.23;6.30;;;16.20;99.90;;;;;;4996957;28;20211;-62
2021/08/03 02:52:43;;;;;;;6.75;6.10;;;16.20;99.90;;;;;;4997848;28;20517;-61
2021/08/03 02:55:25;;;;;;;9.63;8.73;;;16.10;99.90;;;;;;4997400;28;20214;-63
2021/08/03 02:57:58;;;;;;;6.25;5.65;;;16.00;99.90;;;;;;4978196;28;20299;-61
2021/08/03 03:00:27;;;;;;;8.35;6.45;;;16.20;99.90;;;;;;4990970;28;20253;-61
2021/08/03 03:02:56;;;;;;;9.10;5.90;;;16.20;99.90;;;;;;4998040;28;20250;-60
2021/08/03 03:05:27;;;;;;;7.88;5.93;;;16.00;99.90;;;;;;4997865;28;20235;-60
2021/08/03 03:08:08;;;;;;;8.98;5.88;;;16.10;99.90;;;;;;4996948;28;20510;-61
2021/08/03 03:10:41;;;;;;;6.10;5.55;;;16.00;99.90;;;;;;4984413;28;20226;-62
2021/08/03 03:13:16;;;;;;;6.05;5.50;;;16.10;99.90;;;;;;4984135;28;20249;-61
2021/08/03 03:15:45;;;;;;;6.38;5.78;;;16.40;99.90;;;;;;4997817;28;20206;-61
2021/08/03 03:18:13;;;;;;;6.15;5.60;;;16.50;99.90;;;;;;4978216;28;20255;-62
2021/08/03 03:20:41;;;;;;;6.88;6.10;;;16.50;99.90;;;;;;4977720;28;20442;-61
2021/08/03 03:23:09;;;;;;;6.90;6.18;;;16.40;99.90;;;;;;4981743;28;20231;-61
2021/08/03 03:25:37;;;;;;;6.57;5.60;;;16.60;99.90;;;;;;4985879;28;20228;-61
2021/08/03 03:28:06;;;;;;;5.40;4.90;;;16.60;99.90;;;;;;4994289;28;20463;-61
2021/08/03 03:30:33;;;;;;;5.78;5.28;;;16.70;99.90;;;;;;4994423;28;20493;-63
2021/08/03 03:33:04;;;;;;;5.85;5.25;;;16.60;99.90;;;;;;5001474;28;20203;-62
2021/08/03 03:35:35;;;;;;;6.03;5.53;;;16.60;99.90;;;;;;4986084;28;20227;-61
2021/08/03 03:38:04;;;;;;;8.00;6.13;;;16.80;99.90;;;;;;4997080;28;20228;-62
2021/08/03 03:40:32;;;;;;;5.68;5.18;;;16.70;99.90;;;;;;4980776;28;20200;-61
2021/08/03 03:42:59;;;;;;;12.10;6.27;;;16.90;99.90;;;;;;5002738;28;20212;-62
2021/08/03 03:45:27;;;;;;;7.53;6.20;;;16.70;99.90;;;;;;4996774;28;20947;-62
2021/08/03 03:48:03;;;;;;;5.90;5.30;;;16.70;99.90;;;;;;4996992;28;20204;-62
2021/08/03 03:50:40;;;;;;;11.50;6.17;;;16.70;99.90;;;;;;4999578;28;20482;-62
2021/08/03 03:53:11;;;;;;;6.07;5.50;;;16.90;99.90;;;;;;5003717;28;20732;-61
2021/08/03 03:55:47;;;;;;;5.77;5.17;;;17.10;99.90;;;;;;4994059;28;20503;-62
2021/08/03 03:58:16;;;;;;;6.77;6.10;;;17.10;99.90;;;;;;5012327;28;20444;-61
2021/08/03 04:00:44;;;;;;;6.93;6.33;;;17.00;99.90;;;;;;5011483;28;20446;-62
2021/08/03 04:03:15;;;;;;;10.27;7.07;;;17.00;99.90;;;;;;5001073;28;20445;-61
2021/08/03 04:05:43;;;;;;;7.27;6.67;;;16.90;99.90;;;;;;4999365;28;20203;-62
2021/08/03 04:08:10;;;;;;;7.00;6.30;;;16.90;99.90;;;;;;4981504;28;20523;-62
2021/08/03 04:10:38;;;;;;;7.10;6.37;;;16.60;99.90;;;;;;4981317;28;20442;-62
2021/08/03 04:13:06;;;;;;;6.50;6.00;;;16.40;99.90;;;;;;4994190;28;20445;-62
2021/08/03 04:15:34;;;;;;;6.33;5.77;;;16.40;99.90;;;;;;4995799;28;20442;-61
2021/08/03 04:18:01;;;;;;;7.72;6.47;;;16.50;99.90;;;;;;4984893;28;20449;-61
2021/08/03 04:20:28;;;;;;;6.35;5.75;;;16.50;99.90;;;;;;5000853;28;20207;-61
2021/08/03 04:22:55;;;;;;;7.25;6.47;;;16.50;99.90;;;;;;5000319;28;20369;-62
2021/08/03 04:25:23;;;;;;;8.23;6.90;;;16.60;99.90;;;;;;5000141;28;20257;-61
2021/08/03 04:27:51;;;;;;;6.90;6.27;;;16.60;99.90;;;;;;4999995;28;20502;-61
2021/08/03 04:30:18;;;;;;;9.97;9.07;;;16.70;99.90;;;;;;4999946;28;20502;-61
2021/08/03 04:32:45;;;;;;;9.07;7.82;;;16.90;99.90;;;;;;5000235;28;20798;-62
2021/08/03 04:35:12;;;;;;;9.43;8.57;;;17.10;99.90;;;;;;4997843;28;20266;-62
2021/08/03 04:37:43;;;;;;;9.20;5.90;;;17.30;99.90;;;;;;5009227;28;20490;-62
2021/08/03 04:40:12;;;;;;;6.87;6.37;;;17.60;99.90;;;;;;5001002;28;20466;-61
2021/08/03 04:42:39;;;;;;;8.90;6.07;;;17.80;99.90;;;;;;5000290;28;20443;-61
2021/08/03 04:45:07;;;;;;;5.97;5.43;;;18.10;99.90;;;;;;5000040;28;20417;-61
2021/08/03 04:47:40;;;;;;;10.43;5.90;;;18.40;99.90;;;;;;4999665;28;20457;-62
2021/08/03 04:50:10;;;;;;;7.33;6.30;;;18.70;99.90;;;;;;5010832;28;20853;-61
2021/08/03 04:52:37;;;;;;;5.40;4.90;;;18.90;99.90;;;;;;5000049;28;20545;-61
2021/08/03 04:55:06;;;;;;;5.63;5.17;;;18.90;99.90;;;;;;4999589;28;20417;-61
2021/08/03 04:57:34;;;;;;;5.63;5.13;;;19.00;99.90;;;;;;4987021;28;20413;-61
2021/08/03 05:00:01;;;;;;;6.23;5.80;;;19.10;99.90;;;;;;4990053;28;20482;-61
2021/08/03 05:02:27;;;;;;;6.20;5.60;;;19.20;99.90;;;;;;4982393;28;20440;-62
2021/08/03 05:04:55;;;;;;;6.10;5.50;;;19.20;99.90;;;;;;4981722;28;20491;-61
2021/08/03 05:07:22;;;;;;;6.23;5.60;;;19.10;99.90;;;;;;5007465;28;20549;-61
2021/08/03 05:09:49;;;;;;;5.40;4.80;;;19.30;99.90;;;;;;4999697;28;20501;-62
2021/08/03 05:12:16;;;;;;;5.30;4.80;;;19.30;99.90;;;;;;4997708;28;20529;-62
2021/08/03 05:14:43;;;;;;;5.57;5.07;;;19.30;99.90;;;;;;4981357;28;20411;-62
2021/08/03 05:17:10;;;;;;;7.63;6.93;;;19.50;99.90;;;;;;5003439;28;20732;-62
2021/08/03 05:19:37;;;;;;;5.80;5.17;;;19.60;99.90;;;;;;4999186;28;20434;-62
2021/08/03 05:22:04;;;;;;;5.80;5.30;;;19.60;99.90;;;;;;4999080;28;20420;-62
2021/08/03 05:24:32;;;;;;;6.17;5.53;;;19.80;99.90;;;;;;4998780;28;20486;-62
2021/08/03 05:27:00;;;;;;;6.53;5.93;;;19.80;99.90;;;;;;4999512;28;20436;-61
2021/08/03 05:29:28;;;;;;;5.20;4.70;;;19.70;99.90;;;;;;4982864;28;20775;-62
2021/08/03 05:31:55;;;;;;;8.83;5.53;;;19.80;99.90;;;;;;4991558;28;20482;-62
2021/08/03 05:34:22;;;;;;;7.20;5.47;;;20.00;99.90;;;;;;5005625;28;20417;-63
2021/08/03 05:36:49;;;;;;;6.30;5.80;;;20.00;99.90;;;;;;4998524;28;20413;-62
2021/08/03 05:39:16;;;;;;;6.70;5.30;;;20.10;99.90;;;;;;4990510;28;20646;-63
2021/08/03 05:41:43;;;;;;;6.07;5.17;;;20.10;99.90;;;;;;5007280;28;20414;-62
2021/08/03 05:44:10;;;;;;;5.80;5.40;;;20.20;99.90;;;;;;4998881;28;20524;-60
2021/08/03 05:46:37;;;;;;;6.00;5.50;;;20.40;99.90;;;;;;4998261;28;20611;-61
2021/08/03 05:49:04;;;;;;;6.23;5.73;;;20.80;99.90;;;;;;4986492;28;20418;-61
2021/08/03 05:51:31;;;;;;;9.27;6.30;;;21.00;99.90;;;;;;4998527;28;20473;-61
2021/08/03 05:53:58;;;;;;;9.03;5.93;;;21.00;99.90;;;;;;4998374;28;20418;-62
2021/08/03 05:56:25;;;;;;;9.33;5.60;;;21.00;99.90;;;;;;4999222;28;20414;-62
2021/08/03 05:58:52;;;;;;;5.37;4.87;;;20.80;99.90;;;;;;4997857;28;20472;-62
2021/08/03 06:01:19;;;;;;;6.80;4.87;;;20.70;99.90;;;;;;4998485;28;20873;-63
2021/08/03 06:03:46;;;;;;;6.10;5.10;;;20.50;99.90;;;;;;4997654;28;20861;-62
2021/08/03 06:06:16;;;;;;;5.23;4.83;;;20.50;99.90;;;;;;4997880;28;20729;-61
2021/08/03 06:08:43;;;;;;;5.77;5.27;;;20.50;99.90;;;;;;4998820;28;20439;-63
2021/08/03 06:11:17;;;;;;;5.13;4.73;;;20.80;99.90;;;;;;4998522;28;20430;-61
2021/08/03 06:13:48;;;;;;;5.20;4.60;;;21.00;99.90;;;;;;4998442;28;20439;-61
2021/08/03 06:16:18;;;;;;;4.77;4.40;;;21.30;99.90;;;;;;5014427;28;20443;-62
2021/08/03 06:18:46;;;;;;;5.07;4.67;;;21.40;99.90;;;;;;5008440;28;20434;-61
2021/08/03 06:21:16;;;;;;;5.10;4.70;;;21.70;99.90;;;;;;4995837;28;20433;-62
2021/08/03 06:23:45;;;;;;;4.90;4.60;;;22.10;99.90;;;;;;5001729;28;20626;-61
2021/08/03 06:26:13;;;;;;;6.07;5.63;;;22.50;99.90;;;;;;4998983;28;20450;-60
2021/08/03 06:28:44;;;;;;;5.20;4.90;;;22.70;99.90;;;;;;4997625;28;20761;-59
2021/08/03 06:31:11;;;;;;;5.53;4.57;;;23.40;99.90;;;;;;4997993;28;20472;-62
2021/08/03 06:33:38;;;;;;;4.83;4.63;;;24.40;99.90;;;;;;5002660;28;20634;-61
2021/08/03 06:36:05;;;;;;;6.10;5.70;;;25.20;99.90;;;;;;5005634;28;20473;-61
2021/08/03 06:38:32;;;;;;;6.87;6.17;;;26.30;99.90;;;;;;4995418;28;20444;-62
2021/08/03 06:41:04;;;;;;;6.33;5.83;;;27.20;98.10;;;;;;4981646;28;20444;-62
2021/08/03 06:43:32;;;;;;;6.50;6.20;;;27.30;97.10;;;;;;4996329;28;20469;-61
2021/08/03 06:46:05;;;;;;;7.07;6.63;;;27.90;95.20;;;;;;4997875;28;20641;-61
2021/08/03 06:48:41;;;;;;;6.97;6.63;;;28.10;93.90;;;;;;4997187;28;20427;-61
2021/08/03 06:51:09;;;;;;;6.77;6.37;;;28.00;94.10;;;;;;4998702;28;20428;-60
2021/08/03 06:53:37;;;;;;;7.90;7.40;;;27.80;94.20;;;;;;4997742;28;20493;-61
2021/08/03 06:56:05;;;;;;;7.93;7.57;;;28.00;93.70;;;;;;4997566;28;20678;-60
2021/08/03 06:58:57;;;;;;;7.60;7.30;;;28.60;92.40;;;;;;4998182;28;20451;-60
2021/08/03 07:01:55;;;;;;;7.80;7.40;;;29.10;91.40;;;;;;4996697;28;20431;-60
2021/08/03 07:04:33;;;;;;;8.13;7.83;;;29.80;87.90;;;;;;4996706;28;20463;-61
2021/08/03 07:07:01;;;;;;;8.23;7.83;;;30.60;85.60;;;;;;4986034;28;20735;-62
2021/08/03 07:09:29;;;;;;;8.70;8.30;;;31.50;82.90;;;;;;4981344;28;20437;-61
2021/08/03 07:11:57;;;;;;;8.30;7.90;;;32.30;78.90;;;;;;4989157;28;20481;-61
2021/08/03 07:14:24;;;;;;;9.30;8.90;;;33.70;73.90;;;;;;4995263;28;20518;-60
2021/08/03 07:16:53;;;;;;;10.07;9.67;;;35.00;68.10;;;;;;5013746;28;20515;-61
2021/08/03 07:19:22;;;;;;;9.40;9.07;;;36.40;64.10;;;;;;4996908;28;20750;-61
2021/08/03 07:21:51;;;;;;;9.93;9.30;;;37.20;59.40;;;;;;4997551;28;20435;-60
2021/08/03 07:24:19;;;;;;;10.80;10.20;;;37.40;58.00;;;;;;4990607;28;20460;-61
2021/08/03 07:26:46;;;;;;;9.80;9.30;;;38.00;55.70;;;;;;4986592;28;20463;-60
2021/08/03 07:29:13;;;;;;;8.90;8.50;;;36.30;56.60;;;;;;4997686;28;20482;-60
2021/08/03 07:31:43;;;;;;;8.70;8.20;;;36.10;57.30;;;;;;4997548;28;20483;-62
2021/08/03 07:34:10;;;;;;;9.03;8.73;;;37.10;55.10;;;;;;4998416;28;20481;-62
2021/08/03 07:36:38;;;;;;;10.13;9.73;;;37.30;54.00;;;;;;5001212;28;20440;-62
2021/08/03 07:39:06;;;;;;;9.67;9.27;;;38.40;53.30;;;;;;5012204;28;20443;-61
2021/08/03 07:41:37;;;;;;;9.90;9.50;;;38.40;52.00;;;;;;5002263;28;20439;-61
2021/08/03 07:44:06;;;;;;;9.63;9.20;;;38.60;52.00;;;;;;4991208;28;20762;-61
2021/08/03 07:46:35;;;;;;;10.50;10.10;;;39.00;50.20;;;;;;5002454;28;20439;-62
2021/08/03 07:49:05;;;;;;;10.50;10.10;;;40.00;50.60;;;;;;5001708;28;20607;-61
2021/08/03 07:51:33;;;;;;;10.07;9.57;;;40.60;47.90;;;;;;4990784;28;20440;-61
2021/08/03 07:54:00;;;;;;;10.10;9.60;;;39.80;47.80;;;;;;5002024;28;20444;-61
2021/08/03 07:56:28;;;;;;;9.30;9.00;;;39.30;48.70;;;;;;5001670;28;20439;-63
2021/08/03 07:58:55;;;;;;;10.43;9.97;;;39.40;48.60;;;;;;5000633;28;20478;-62
2021/08/03 08:01:22;;;;;;;9.10;8.60;;;40.60;46.80;;;;;;5014678;28;20765;-62
2021/08/03 08:03:49;;;;;;;10.50;10.10;;;41.00;46.40;;;;;;4999292;28;20795;-62
2021/08/03 08:06:16;;;;;;;9.20;8.90;;;41.40;45.30;;;;;;5000120;28;20824;-62
2021/08/03 08:08:43;;;;;;;10.20;9.80;;;40.80;45.00;;;;;;5001336;28;20490;-63
2021/08/03 08:11:11;;;;;;;12.47;11.43;;;41.30;44.60;;;;;;4989677;28;20450;-63
2021/08/03 08:13:38;;;;;;;10.23;9.83;;;40.70;45.80;;;;;;4986163;28;20523;-62
2021/08/03 08:16:06;;;;;;;8.87;8.57;;;40.80;44.20;;;;;;4983833;28;20443;-61
2021/08/03 08:18:33;;;;;;;9.30;9.00;;;40.10;44.80;;;;;;5004965;28;20474;-63
2021/08/03 08:21:00;;;;;;;10.37;9.40;;;41.30;43.90;;;;;;5000663;28;20443;-62
2021/08/03 08:23:27;;;;;;;10.20;9.80;;;42.20;43.00;;;;;;4994776;28;20484;-61
2021/08/03 08:25:55;;;;;;;10.20;9.73;;;42.20;43.40;;;;;;5002048;28;20501;-62
2021/08/03 08:28:22;;;;;;;10.83;10.33;;;42.60;42.40;;;;;;5002746;28;20477;-63
2021/08/03 08:30:50;;;;;;;10.60;10.10;;;43.30;40.70;;;;;;5007531;28;20439;-63
2021/08/03 08:33:17;;;;;;;9.53;8.93;;;43.00;41.50;;;;;;4999265;28;20566;-60
2021/08/03 08:35:44;;;;;;;9.83;9.33;;;39.70;44.00;;;;;;4991043;28;20482;-61
2021/08/03 08:38:11;;;;;;;10.83;10.20;;;38.40;46.70;;;;;;4995690;28;20456;-61
2021/08/03 08:40:40;;;;;;;12.73;11.70;;;37.20;47.60;;;;;;4996979;28;20442;-61
2021/08/03 08:43:10;;;;;;;9.70;9.30;;;35.40;49.80;;;;;;5005270;28;20443;-62
2021/08/03 08:45:37;;;;;;;9.70;9.10;;;35.20;50.40;;;;;;4999791;28;20435;-62
2021/08/03 08:48:06;;;;;;;8.57;8.27;;;37.30;47.00;;;;;;4997402;28;20439;-63
2021/08/03 08:50:33;;;;;;;9.80;9.30;;;38.40;46.80;;;;;;4997355;28;20436;-63
2021/08/03 08:53:00;;;;;;;10.40;9.77;;;39.20;44.70;;;;;;5005429;28;20471;-63
2021/08/03 08:55:27;;;;;;;9.00;8.70;;;37.50;46.00;;;;;;4999354;28;20435;-62
2021/08/03 08:57:55;;;;;;;10.27;9.67;;;34.30;50.90;;;;;;4999875;28;20511;-62
2021/08/03 09:00:23;;;;;;;10.10;9.70;;;35.10;49.90;;;;;;5000272;28;20490;-63
2021/08/03 09:02:53;;;;;;;9.90;9.40;;;36.70;47.00;;;;;;4998984;28;20996;-62
2021/08/03 09:05:32;;;;;;;10.30;9.70;;;34.60;49.30;;;;;;4999681;28;20467;-63
2021/08/03 09:08:02;;;;;;;9.47;9.17;;;32.80;52.80;;;;;;4999153;28;20423;-63
2021/08/03 09:10:41;;;;;;;8.30;8.00;;;31.40;55.20;;;;;;4999669;28;20443;-63
2021/08/03 09:13:15;;;;;;;10.00;9.50;;;30.10;56.90;;;;;;4998581;28;20493;-64
2021/08/03 09:15:55;;;;;;;9.30;8.90;;;29.40;57.70;;;;;;4988757;28;20499;-64
2021/08/03 09:18:34;;;;;;;8.50;8.10;;;28.90;59.50;;;;;;4998918;28;20410;-64
2021/08/03 09:21:02;;;;;;;8.43;8.03;;;28.60;60.70;;;;;;4987673;28;20421;-64
2021/08/03 09:23:40;;;;;;;7.50;7.20;;;28.00;63.80;;;;;;5014146;28;20430;-63
2021/08/03 09:26:07;;;;;;;7.77;7.27;;;27.60;66.20;;;;;;4999131;28;20623;-64
2021/08/03 09:28:34;;;;;;;7.57;7.27;;;27.10;67.10;;;;;;4996596;28;20512;-63
2021/08/03 09:31:05;;;;;;;7.27;6.97;;;27.00;66.40;;;;;;4988465;28;20651;-64
2021/08/03 09:33:33;;;;;;;8.30;7.93;;;27.10;65.10;;;;;;4984825;28;20478;-63
2021/08/03 09:36:00;;;;;;;8.27;7.87;;;26.70;67.00;;;;;;4987978;28;20412;-65
2021/08/03 09:38:27;;;;;;;7.83;7.50;;;26.50;67.90;;;;;;4988197;28;20471;-64
2021/08/03 09:41:07;;;;;;;8.50;8.10;;;26.40;68.90;;;;;;4982558;28;20461;-62
2021/08/03 09:43:34;;;;;;;8.40;7.93;;;26.70;66.40;;;;;;4985147;28;20597;-64
2021/08/03 09:46:02;;;;;;;7.40;7.10;;;26.50;66.50;;;;;;4998989;28;20532;-63
2021/08/03 09:48:30;;;;;;;8.30;7.87;;;26.30;66.90;;;;;;4997005;28;20644;-63
2021/08/03 09:51:04;;;;;;;7.13;6.83;;;26.20;68.40;;;;;;4999341;28;20503;-63
2021/08/03 09:53:54;;;;;;;7.73;7.43;;;26.20;68.10;;;;;;4998740;28;20529;-63
2021/08/03 09:56:27;;;;;;;7.93;7.53;;;25.90;68.70;;;;;;4991591;28;20508;-62
2021/08/03 09:58:58;;;;;;;8.47;8.07;;;25.90;71.90;;;;;;4981397;28;20409;-63
2021/08/03 10:01:40;;;;;;;7.60;7.20;;;25.70;72.10;;;;;;4999009;28;20410;-64
2021/08/03 10:04:10;;;;;;;7.00;6.70;;;25.80;70.50;;;;;;4996741;28;20922;-62
2021/08/03 10:06:38;;;;;;;7.70;7.20;;;25.80;70.10;;;;;;4990679;28;20592;-63
2021/08/03 10:09:07;;;;;;;8.10;7.60;;;25.90;71.30;;;;;;5031589;28;20445;-63
2021/08/03 10:11:35;;;;;;;7.47;7.17;;;26.20;69.70;;;;;;5014074;28;20451;-63
2021/08/03 10:14:22;;;;;;;7.40;7.10;;;26.70;66.50;;;;;;4999470;28;20466;-62
2021/08/03 10:16:51;;;;;;;8.23;7.83;;;26.90;66.40;;;;;;4998568;28;20440;-61
2021/08/03 10:19:24;;;;;;;6.90;6.70;;;27.30;66.70;;;;;;5001410;28;20420;-62
2021/08/03 10:22:01;;;;;;;8.03;7.63;;;28.00;65.70;;;;;;4986499;28;20502;-62
2021/08/03 10:24:32;;;;;;;7.97;7.57;;;28.30;63.60;;;;;;4999813;28;20677;-62
2021/08/03 10:27:11;;;;;;;7.70;7.40;;;28.00;64.00;;;;;;5029510;28;20438;-62
2021/08/03 10:29:51;;;;;;;8.00;7.70;;;27.90;64.80;;;;;;4988208;28;20639;-63
2021/08/03 10:32:57;;;;;;;7.77;7.47;;;28.10;64.10;;;;;;4997573;28;20809;-62
2021/08/03 10:35:51;;;;;;;8.90;8.40;;;28.30;63.00;;;;;;5014569;28;20793;-63
2021/08/03 10:38:20;;;;;;;7.63;7.33;;;28.50;62.70;;;;;;4990512;28;20465;-62
2021/08/03 10:40:48;;;;;;;8.27;7.87;;;28.30;64.70;;;;;;4981742;28;20407;-62
2021/08/03 10:43:34;;;;;;;7.60;7.20;;;28.30;64.30;;;;;;4981305;28;20491;-62
2021/08/03 10:46:07;;;;;;;7.83;7.43;;;28.00;64.60;;;;;;4979671;28;20454;-61
2021/08/03 10:48:37;;;;;;;8.87;8.27;;;28.00;65.90;;;;;;4982399;28;20766;-62
2021/08/03 10:51:13;;;;;;;7.53;7.23;;;27.90;65.10;;;;;;4981072;28;20436;-62
2021/08/03 10:54:02;;;;;;;7.73;7.33;;;27.80;66.30;;;;;;4990518;28;20765;-62
2021/08/03 10:56:52;;;;;;;7.70;7.30;;;27.80;64.90;;;;;;4993591;28;20463;-61
2021/08/03 10:59:34;;;;;;;7.30;7.00;;;27.60;64.90;;;;;;4985584;28;20438;-61
2021/08/03 11:02:07;;;;;;;8.17;7.67;;;27.30;66.30;;;;;;4991111;28;20408;-61
2021/08/03 11:04:47;;;;;;;7.90;7.50;;;26.90;68.80;;;;;;4984577;28;20470;-61
2021/08/03 11:07:30;;;;;;;7.13;6.73;;;26.80;69.00;;;;;;4997662;28;20636;-63
2021/08/03 11:10:25;;;;;;;7.20;6.90;;;27.20;68.20;;;;;;4997249;28;20433;-62
2021/08/03 11:12:53;;;;;;;7.30;7.00;;;27.50;68.00;;;;;;4997133;28;20705;-62
2021/08/03 11:15:23;;;;;;;7.40;7.13;;;27.80;64.60;;;;;;4997623;28;20644;-62
2021/08/03 11:18:02;;;;;;;7.17;6.87;;;28.20;65.20;;;;;;4997742;28;20485;-62
2021/08/03 11:20:38;;;;;;;7.10;6.80;;;28.70;62.90;;;;;;4997763;28;20489;-61
2021/08/03 11:23:14;;;;;;;7.13;6.83;;;28.50;64.20;;;;;;4996727;28;20462;-62
2021/08/03 11:25:44;;;;;;;6.50;6.30;;;28.50;64.60;;;;;;4990527;28;20484;-62
2021/08/03 11:28:15;;;;;;;6.93;6.63;;;28.60;62.20;;;;;;4995484;28;20451;-63
2021/08/03 11:30:44;;;;;;;7.40;6.90;;;28.60;62.80;;;;;;4996181;28;20436;-62
2021/08/03 11:33:13;;;;;;;6.80;6.57;;;28.10;63.70;;;;;;4993753;28;20477;-61
2021/08/03 11:35:40;;;;;;;6.87;6.57;;;27.70;65.30;;;;;;4996673;28;20418;-62
2021/08/03 11:38:13;;;;;;;7.20;6.80;;;28.00;66.80;;;;;;4996072;28;20509;-62
2021/08/03 11:40:41;;;;;;;8.23;7.50;;;28.40;65.20;;;;;;4995911;28;20474;-63
2021/08/03 11:43:09;;;;;;;7.33;7.03;;;28.80;62.60;;;;;;4995820;28;20495;-62
2021/08/03 11:45:39;;;;;;;7.03;6.80;;;28.90;62.50;;;;;;4994094;28;20543;-63
2021/08/03 11:48:25;;;;;;;7.50;7.20;;;29.00;59.30;;;;;;5010088;28;21072;-61
2021/08/03 11:50:52;;;;;;;7.10;6.80;;;29.20;60.80;;;;;;4996436;28;20494;-62
2021/08/03 11:53:21;;;;;;;6.97;6.77;;;29.60;59.30;;;;;;4994456;28;20479;-62
2021/08/03 11:55:51;;;;;;;7.00;6.60;;;29.70;60.20;;;;;;4995733;28;20435;-62
2021/08/03 11:58:20;;;;;;;6.57;6.30;;;29.60;60.90;;;;;;4990881;28;20433;-62
2021/08/03 12:00:55;;;;;;;6.70;6.40;;;29.80;60.00;;;;;;4981282;28;20440;-62
2021/08/03 12:03:34;;;;;;;7.27;6.93;;;29.70;58.90;;;;;;4996910;28;20435;-61
2021/08/03 12:06:06;;;;;;;7.00;6.60;;;29.30;60.60;;;;;;4992050;28;20431;-62
2021/08/03 12:08:35;;;;;;;6.80;6.50;;;28.90;62.40;;;;;;4994178;28;20452;-62
2021/08/03 12:11:02;;;;;;;6.27;5.97;;;28.60;63.50;;;;;;4987094;28;20486;-62
2021/08/03 12:13:33;;;;;;;6.50;6.30;;;28.50;63.10;;;;;;4995691;28;20792;-61
2021/08/03 12:16:02;;;;;;;6.80;6.43;;;28.40;64.20;;;;;;5022804;28;20439;-63
2021/08/03 12:18:36;;;;;;;7.67;7.07;;;28.20;65.30;;;;;;4993179;28;20439;-62
2021/08/03 12:21:04;;;;;;;6.40;6.13;;;27.90;67.30;;;;;;4990866;28;20481;-64
2021/08/03 12:23:36;;;;;;;7.03;6.63;;;27.60;67.10;;;;;;4988015;28;20463;-62
2021/08/03 12:26:19;;;;;;;7.57;6.80;;;27.10;68.70;;;;;;4983094;28;20441;-65
2021/08/03 12:28:57;;;;;;;7.97;7.20;;;26.60;90.20;;;;;;5003790;28;20972;-70
2021/08/03 12:31:32;;;;;;;7.03;6.50;;;25.00;94.30;;;;;;4985577;28;20507;-70
2021/08/03 12:34:06;;;;;;;6.97;6.37;;;23.10;99.90;;;;;;4990662;28;20529;-69
2021/08/03 12:36:46;;;;;;;5.60;5.20;;;21.50;99.90;;;;;;5000353;28;20434;-71
2021/08/03 12:39:21;;;;;;;6.20;4.47;;;20.50;99.90;;;;;;5015606;28;20466;-69
2021/08/03 12:42:10;;;;;;;4.83;4.50;;;20.10;99.90;;;;;;5011055;28;20727;-71
2021/08/03 12:44:40;;;;;;;4.20;3.90;;;19.90;99.90;;;;;;4999825;28;20412;-69
2021/08/03 12:47:11;;;;;;;3.93;3.63;;;19.50;99.90;;;;;;4997738;28;20626;-70
2021/08/03 12:49:40;;;;;;;3.63;3.43;;;19.20;99.90;;;;;;4999852;28;20757;-69
2021/08/03 12:52:14;;;;;;;3.57;3.33;;;19.10;99.90;;;;;;5010758;28;20410;-70
2021/08/03 12:54:55;;;;;;;2.97;2.73;;;19.10;99.90;;;;;;5000183;28;20834;-70
2021/08/03 12:57:23;;;;;;;3.30;3.10;;;19.00;99.90;;;;;;4998306;28;20463;-70
2021/08/03 12:59:50;;;;;;;3.13;2.93;;;19.00;99.90;;;;;;4998193;28;20469;-72
2021/08/03 13:02:18;;;;;;;2.93;2.83;;;18.90;99.90;;;;;;4999276;28;20433;-73
2021/08/03 13:04:46;;;;;;;3.10;2.90;;;18.80;99.90;;;;;;4998459;28;20690;-74